createdAt,value
2022-12-17T00:04:46.739Z,56.1
2022-12-17T00:10:12.695Z,56.1
2022-12-17T00:15:56.038Z,56.1
2022-12-17T00:21:19.891Z,56
2022-12-17T00:26:50.634Z,55.9
2022-12-17T00:32:30.152Z,55.9
2022-12-17T00:38:08.774Z,55.9
2022-12-17T00:43:50.306Z,55.8
2022-12-17T00:48:58.035Z,55.8
2022-12-17T00:54:23.011Z,55.7
2022-12-17T01:00:04.212Z,55.7
2022-12-17T01:05:16.310Z,55.6
2022-12-17T01:10:54.165Z,55.6
2022-12-17T01:16:23.022Z,55.5
2022-12-17T01:21:47.831Z,55.4
2022-12-17T01:27:29.928Z,55.4
2022-12-17T01:33:14.893Z,55.4
2022-12-17T01:38:52.920Z,55.3
2022-12-17T01:44:31.092Z,55.3
2022-12-17T01:50:09.485Z,55.3
2022-12-17T01:55:31.640Z,55.2
2022-12-17T02:00:37.838Z,55.1
2022-12-17T02:06:01.897Z,55.1
2022-12-17T02:11:23.218Z,55
2022-12-17T02:16:46.239Z,55
2022-12-17T02:22:24.428Z,54.9
2022-12-17T02:27:46.940Z,54.9
2022-12-17T02:33:24.712Z,54.8
2022-12-17T02:39:04.609Z,54.8
2022-12-17T02:44:43.703Z,54.8
2022-12-17T02:50:21.263Z,54.7
2022-12-17T02:55:43.372Z,54.7
2022-12-17T03:01:08.199Z,54.6
2022-12-17T03:07:22.403Z,54.6
2022-12-17T03:13:00.996Z,54.5
2022-12-17T03:18:39.894Z,54.5
2022-12-17T03:24:17.839Z,54.4
2022-12-17T03:29:56.597Z,54.4
2022-12-17T03:35:24.555Z,54.3
2022-12-17T03:41:01.167Z,54.3
2022-12-17T03:46:39.283Z,54.3
2022-12-17T03:52:00.485Z,54.2
2022-12-17T03:57:37.495Z,54.1
2022-12-17T04:03:17.504Z,54.1
2022-12-17T04:09:01.707Z,54.1
2022-12-17T04:14:44.508Z,54
2022-12-17T04:20:23.355Z,53.9
2022-12-17T04:25:44.685Z,53.9
2022-12-17T04:31:21.732Z,53.9
2022-12-17T04:37:06.133Z,53.8
2022-12-17T04:42:43.923Z,53.8
2022-12-17T04:48:21.487Z,53.8
2022-12-17T04:53:44.478Z,53.7
2022-12-17T04:59:22.102Z,53.6
2022-12-17T05:05:01.217Z,53.6
2022-12-17T05:10:24.196Z,53.5
2022-12-17T05:16:09.299Z,53.5
2022-12-17T05:21:50.001Z,53.4
2022-12-17T05:27:30.183Z,53.4
2022-12-17T05:33:13.767Z,53.3
2022-12-17T05:38:51.620Z,53.3
2022-12-17T05:44:30.075Z,53.3
2022-12-17T05:50:08.361Z,53.2
2022-12-17T05:55:34.191Z,53.1
2022-12-17T06:01:18.408Z,53.1
2022-12-17T06:06:42.053Z,53
2022-12-17T06:12:19.773Z,53
2022-12-17T06:17:43.073Z,52.9
2022-12-17T06:23:06.540Z,52.9
2022-12-17T06:28:44.738Z,52.8
2022-12-17T06:34:23.446Z,52.8
2022-12-17T06:40:04.034Z,52.8
2022-12-17T06:45:46.517Z,52.7
2022-12-17T06:51:25.570Z,52.6
2022-12-17T06:57:03.679Z,52.6
2022-12-17T07:02:46.827Z,52.6
2022-12-17T07:08:25.417Z,52.5
2022-12-17T07:14:11.638Z,52.4
2022-12-17T07:30:34.919Z,52.3
2022-12-17T07:36:17.686Z,52.3
2022-12-17T07:41:56.222Z,52.2
2022-12-17T07:47:35.337Z,52.2
2022-12-17T07:53:11.886Z,52.1
2022-12-17T07:58:39.256Z,52.1
2022-12-17T08:04:19.531Z,52.1
2022-12-17T08:10:01.410Z,52
2022-12-17T08:20:45.074Z,51.9
2022-12-17T08:26:24.205Z,51.9
2022-12-17T08:32:44.637Z,51.8
2022-12-17T08:38:23.417Z,51.8
2022-12-17T08:44:06.023Z,51.7
2022-12-17T08:49:46.279Z,51.7
2022-12-17T08:55:24.061Z,51.6
2022-12-17T09:01:01.978Z,51.6
2022-12-17T09:06:43.070Z,51.5
2022-12-17T09:12:20.722Z,51.5
2022-12-17T09:17:58.563Z,51.4
2022-12-17T09:23:37.838Z,51.4
2022-12-17T09:29:21.176Z,51.4
2022-12-17T09:35:03.322Z,51.3
2022-12-17T09:40:47.846Z,51.3
2022-12-17T09:46:15.467Z,51.2
2022-12-17T09:51:42.032Z,51.2
2022-12-17T09:57:05.221Z,51.1
2022-12-17T10:02:44.266Z,51.1
2022-12-17T10:08:25.501Z,51.1
2022-12-17T10:14:09.383Z,51
2022-12-17T10:19:47.864Z,50.9
2022-12-17T10:25:29.567Z,50.9
2022-12-17T10:31:12.229Z,50.9
2022-12-17T10:36:34.149Z,50.8
2022-12-17T10:42:11.497Z,50.8
2022-12-17T10:47:56.344Z,50.8
2022-12-17T10:53:39.266Z,50.7
2022-12-17T10:59:21.748Z,50.6
2022-12-17T11:04:52.470Z,50.6
2022-12-17T11:10:42.455Z,50.6
2022-12-17T11:16:29.471Z,50.5
2022-12-17T11:22:09.694Z,50.5
2022-12-17T11:27:47.411Z,50.4
2022-12-17T11:33:25.016Z,50.4
2022-12-17T11:39:13.553Z,50.3
2022-12-17T11:44:51.485Z,50.3
2022-12-17T11:50:01.855Z,50.3
2022-12-17T11:55:46.686Z,50.2
2022-12-17T12:01:32.579Z,50.2
2022-12-17T12:07:18.346Z,50.1
2022-12-17T12:12:56.390Z,50.1
2022-12-17T12:18:34.868Z,50
2022-12-17T12:24:14.620Z,50
2022-12-17T12:29:58.827Z,49.9
2022-12-17T12:35:42.144Z,49.9
2022-12-17T12:41:20.374Z,49.9
2022-12-17T12:46:58.805Z,49.8
2022-12-17T12:52:40.433Z,49.8
2022-12-17T12:58:23.377Z,49.8
2022-12-17T13:04:08.037Z,49.7
2022-12-17T13:09:34.375Z,49.6
2022-12-17T13:15:16.674Z,49.6
2022-12-17T13:20:56.232Z,49.6
2022-12-17T13:26:39.744Z,49.5
2022-12-17T13:32:24.226Z,49.5
2022-12-17T13:37:48.748Z,49.4
2022-12-17T13:43:28.377Z,49.4
2022-12-17T13:49:05.565Z,49.4
2022-12-17T13:55:21.218Z,49.3
2022-12-17T14:01:01.541Z,49.3
2022-12-17T14:07:12.148Z,49.2
2022-12-17T14:12:49.768Z,49.2
2022-12-17T14:18:30.930Z,49.1
2022-12-17T14:23:56.780Z,49.1
2022-12-17T14:29:39.713Z,49.1
2022-12-17T14:36:06.262Z,49
2022-12-17T14:42:05.383Z,48.9
2022-12-17T14:47:47.188Z,48.9
2022-12-17T14:53:25.407Z,48.9
2022-12-17T14:59:03.422Z,48.8
2022-12-17T15:04:48.297Z,48.8
2022-12-17T15:10:10.515Z,48.8
2022-12-17T15:15:36.473Z,48.7
2022-12-17T15:21:19.929Z,48.7
2022-12-17T15:26:35.134Z,48.6
2022-12-17T15:32:01.329Z,48.6
2022-12-17T15:37:42.468Z,48.6
2022-12-17T15:43:23.028Z,48.5
2022-12-17T15:49:06.415Z,48.5
2022-12-17T15:54:46.120Z,48.4
2022-12-17T16:00:25.812Z,48.4
2022-12-17T16:05:41.430Z,48.4
2022-12-17T16:11:25.208Z,48.3
2022-12-17T16:16:36.994Z,48.3
2022-12-17T16:22:19.703Z,48.3
2022-12-17T16:27:42.983Z,48.2
2022-12-17T16:33:26.546Z,48.1
2022-12-17T16:39:06.206Z,48.1
2022-12-17T16:44:48.867Z,48.1
2022-12-17T16:50:28.272Z,48
2022-12-17T16:56:14.115Z,48
2022-12-17T17:01:42.218Z,47.9
2022-12-17T17:07:25.522Z,47.9
2022-12-17T17:13:03.502Z,47.9
2022-12-17T17:19:01.800Z,47.8
2022-12-17T17:24:40.942Z,47.8
2022-12-17T17:30:38.890Z,47.8
2022-12-17T17:36:57.684Z,47.7
2022-12-17T17:42:36.759Z,47.6
2022-12-17T17:48:15.469Z,47.6
2022-12-17T17:54:34.571Z,47.6
2022-12-17T18:00:18.885Z,47.5
2022-12-17T18:05:58.756Z,47.5
2022-12-17T18:12:12.357Z,47.4
2022-12-17T18:18:06.376Z,47.4
2022-12-17T18:23:45.352Z,47.3
2022-12-17T18:29:24.032Z,47.3
2022-12-17T18:34:47.161Z,47.3
2022-12-17T18:40:27.586Z,47.2
2022-12-17T18:46:09.520Z,47.2
2022-12-17T18:51:52.231Z,47.1
2022-12-17T18:58:06.661Z,47.1
2022-12-17T19:03:46.681Z,47.1
2022-12-17T19:09:29.603Z,47
2022-12-17T19:15:09.025Z,46.9
2022-12-17T19:20:47.994Z,46.9
2022-12-17T19:26:25.737Z,46.9
2022-12-17T19:31:51.957Z,46.8
2022-12-17T19:37:34.545Z,46.8
2022-12-17T19:43:12.556Z,46.8
2022-12-17T19:48:51.245Z,46.8
2022-12-17T19:54:39.470Z,46.7
2022-12-17T20:00:17.263Z,46.7
2022-12-17T20:05:58.140Z,46.6
2022-12-17T20:11:36.703Z,46.6
2022-12-17T20:17:19.493Z,46.5
2022-12-17T20:22:57.146Z,46.5
2022-12-17T20:28:19.233Z,46.4
2022-12-17T20:33:46.207Z,46.4
2022-12-17T20:39:09.423Z,46
2022-12-17T20:44:53.322Z,47.3
2022-12-17T20:50:16.299Z,48.8
2022-12-17T20:55:59.457Z,50.3
2022-12-17T21:01:39.205Z,51.8
2022-12-17T21:07:19.094Z,53.4
2022-12-17T21:12:47.655Z,54.5
2022-12-17T21:18:02.471Z,54.6
2022-12-17T21:23:50.627Z,54.5
2022-12-17T21:29:02.154Z,54.5
2022-12-17T21:33:42.597Z,54.5
2022-12-17T21:38:57.075Z,54.5
2022-12-17T21:44:37.391Z,54.4
2022-12-17T21:50:23.018Z,54.4
2022-12-17T21:56:02.525Z,54.4
2022-12-17T22:01:33.677Z,54.3
2022-12-17T22:08:05.941Z,54.3
2022-12-17T22:14:41.223Z,54.3
2022-12-17T22:20:16.874Z,54.2
2022-12-17T22:25:44.867Z,54.2
2022-12-17T22:31:08.526Z,54.1
2022-12-17T22:47:11.489Z,53.6
2022-12-17T22:53:25.728Z,53.3
2022-12-17T23:00:11.247Z,53.3
2022-12-17T23:05:56.904Z,53.3
2022-12-17T23:11:35.061Z,53.2
2022-12-17T23:17:13.216Z,53.1
2022-12-17T23:22:38.890Z,53.1
2022-12-17T23:28:15.918Z,53.1
2022-12-17T23:33:54.578Z,53
2022-12-17T23:39:20.521Z,52.9
2022-12-17T23:44:59.453Z,52.9
2022-12-17T23:50:42.004Z,52.8
2022-12-17T23:56:20.791Z,52.8
